sensor_id;sensor_type;location;lat;lon;timestamp;P1;durP1;ratioP1;P2;durP2;ratioP2
23129;SDS011;11734;51.046;13.778;2022-12-07T00:02:17;12.50;;;8.80;;
23129;SDS011;11734;51.046;13.778;2022-12-07T00:04:44;12.50;;;8.27;;
23129;SDS011;11734;51.046;13.778;2022-12-07T00:07:11;12.10;;;8.23;;
23129;SDS011;11734;51.046;13.778;2022-12-07T00:09:39;10.03;;;8.20;;
23129;SDS011;11734;51.046;13.778;2022-12-07T00:12:07;11.83;;;8.07;;
23129;SDS011;11734;51.046;13.778;2022-12-07T00:14:35;12.43;;;8.20;;
23129;SDS011;11734;51.046;13.778;2022-12-07T00:17:02;12.07;;;8.67;;
23129;SDS011;11734;51.046;13.778;2022-12-07T00:19:29;12.20;;;8.17;;
23129;SDS011;11734;51.046;13.778;2022-12-07T00:21:56;12.53;;;8.53;;
23129;SDS011;11734;51.046;13.778;2022-12-07T00:24:24;11.60;;;8.13;;
23129;SDS011;11734;51.046;13.778;2022-12-07T00:26:51;9.43;;;7.30;;
23129;SDS011;11734;51.046;13.778;2022-12-07T00:29:19;11.00;;;7.97;;
23129;SDS011;11734;51.046;13.778;2022-12-07T00:31:47;13.50;;;8.17;;
23129;SDS011;11734;51.046;13.778;2022-12-07T00:34:17;10.80;;;7.83;;
23129;SDS011;11734;51.046;13.778;2022-12-07T00:36:44;11.20;;;7.30;;
23129;SDS011;11734;51.046;13.778;2022-12-07T00:39:11;11.17;;;7.83;;
23129;SDS011;11734;51.046;13.778;2022-12-07T00:41:39;12.07;;;8.17;;
23129;SDS011;11734;51.046;13.778;2022-12-07T00:44:06;11.77;;;8.20;;
23129;SDS011;11734;51.046;13.778;2022-12-07T00:46:33;12.40;;;7.83;;
23129;SDS011;11734;51.046;13.778;2022-12-07T00:49:00;11.50;;;7.60;;
23129;SDS011;11734;51.046;13.778;2022-12-07T00:51:27;12.40;;;8.20;;
23129;SDS011;11734;51.046;13.778;2022-12-07T00:53:55;13.13;;;8.43;;
23129;SDS011;11734;51.046;13.778;2022-12-07T00:56:23;12.73;;;8.70;;
23129;SDS011;11734;51.046;13.778;2022-12-07T01:01:22;13.33;;;8.23;;
23129;SDS011;11734;51.046;13.778;2022-12-07T01:03:49;14.57;;;8.10;;
23129;SDS011;11734;51.046;13.778;2022-12-07T01:06:17;12.17;;;8.20;;
23129;SDS011;11734;51.046;13.778;2022-12-07T01:08:45;12.23;;;8.23;;
23129;SDS011;11734;51.046;13.778;2022-12-07T01:11:14;12.60;;;8.40;;
23129;SDS011;11734;51.046;13.778;2022-12-07T01:13:42;12.77;;;9.13;;
23129;SDS011;11734;51.046;13.778;2022-12-07T01:16:10;11.83;;;8.13;;
23129;SDS011;11734;51.046;13.778;2022-12-07T01:18:38;15.27;;;9.60;;
23129;SDS011;11734;51.046;13.778;2022-12-07T01:23:35;12.03;;;8.53;;
23129;SDS011;11734;51.046;13.778;2022-12-07T01:26:04;16.10;;;9.83;;
23129;SDS011;11734;51.046;13.778;2022-12-07T01:28:32;13.43;;;8.47;;
23129;SDS011;11734;51.046;13.778;2022-12-07T01:31:03;12.67;;;9.03;;
23129;SDS011;11734;51.046;13.778;2022-12-07T01:33:32;12.23;;;8.63;;
23129;SDS011;11734;51.046;13.778;2022-12-07T01:36:01;14.60;;;9.10;;
23129;SDS011;11734;51.046;13.778;2022-12-07T01:38:28;11.37;;;8.17;;
23129;SDS011;11734;51.046;13.778;2022-12-07T01:40:56;14.50;;;9.07;;
23129;SDS011;11734;51.046;13.778;2022-12-07T01:43:24;14.90;;;9.33;;
23129;SDS011;11734;51.046;13.778;2022-12-07T01:45:52;15.07;;;8.83;;
23129;SDS011;11734;51.046;13.778;2022-12-07T01:48:27;12.90;;;8.60;;
23129;SDS011;11734;51.046;13.778;2022-12-07T01:50:55;14.17;;;8.07;;
23129;SDS011;11734;51.046;13.778;2022-12-07T01:53:24;13.57;;;9.13;;
23129;SDS011;11734;51.046;13.778;2022-12-07T01:55:52;13.67;;;9.53;;
23129;SDS011;11734;51.046;13.778;2022-12-07T01:58:21;12.67;;;8.17;;
23129;SDS011;11734;51.046;13.778;2022-12-07T02:00:48;11.83;;;8.47;;
23129;SDS011;11734;51.046;13.778;2022-12-07T02:03:24;12.97;;;8.07;;
23129;SDS011;11734;51.046;13.778;2022-12-07T02:05:52;12.27;;;8.00;;
23129;SDS011;11734;51.046;13.778;2022-12-07T02:08:20;10.90;;;7.80;;
23129;SDS011;11734;51.046;13.778;2022-12-07T02:10:47;9.23;;;6.87;;
23129;SDS011;11734;51.046;13.778;2022-12-07T02:13:28;11.97;;;7.33;;
23129;SDS011;11734;51.046;13.778;2022-12-07T02:18:44;11.93;;;7.80;;
23129;SDS011;11734;51.046;13.778;2022-12-07T02:28:56;10.37;;;7.50;;
23129;SDS011;11734;51.046;13.778;2022-12-07T02:31:29;10.27;;;6.77;;
23129;SDS011;11734;51.046;13.778;2022-12-07T02:34:00;8.50;;;6.33;;
23129;SDS011;11734;51.046;13.778;2022-12-07T02:36:32;8.10;;;5.77;;
23129;SDS011;11734;51.046;13.778;2022-12-07T02:39:08;9.50;;;6.53;;
23129;SDS011;11734;51.046;13.778;2022-12-07T02:41:48;8.77;;;6.53;;
23129;SDS011;11734;51.046;13.778;2022-12-07T02:44:19;9.83;;;6.50;;
23129;SDS011;11734;51.046;13.778;2022-12-07T02:46:54;9.63;;;6.50;;
23129;SDS011;11734;51.046;13.778;2022-12-07T02:49:23;10.77;;;6.93;;
23129;SDS011;11734;51.046;13.778;2022-12-07T02:51:52;11.00;;;6.80;;
23129;SDS011;11734;51.046;13.778;2022-12-07T02:54:20;10.20;;;7.77;;
23129;SDS011;11734;51.046;13.778;2022-12-07T02:56:49;9.77;;;6.80;;
23129;SDS011;11734;51.046;13.778;2022-12-07T03:07:11;9.00;;;6.83;;
23129;SDS011;11734;51.046;13.778;2022-12-07T03:12:13;9.80;;;7.27;;
23129;SDS011;11734;51.046;13.778;2022-12-07T03:14:52;10.20;;;7.47;;
23129;SDS011;11734;51.046;13.778;2022-12-07T03:17:24;10.80;;;7.30;;
23129;SDS011;11734;51.046;13.778;2022-12-07T03:19:54;9.50;;;7.03;;
23129;SDS011;11734;51.046;13.778;2022-12-07T03:22:22;8.67;;;6.63;;
23129;SDS011;11734;51.046;13.778;2022-12-07T03:24:54;10.30;;;7.50;;
23129;SDS011;11734;51.046;13.778;2022-12-07T03:27:33;10.37;;;7.13;;
23129;SDS011;11734;51.046;13.778;2022-12-07T03:30:06;12.80;;;8.07;;
23129;SDS011;11734;51.046;13.778;2022-12-07T03:32:38;11.37;;;8.00;;
23129;SDS011;11734;51.046;13.778;2022-12-07T03:35:08;11.17;;;8.20;;
23129;SDS011;11734;51.046;13.778;2022-12-07T03:37:42;12.23;;;8.87;;
23129;SDS011;11734;51.046;13.778;2022-12-07T03:43:10;12.67;;;8.87;;
23129;SDS011;11734;51.046;13.778;2022-12-07T03:46:06;11.87;;;8.00;;
23129;SDS011;11734;51.046;13.778;2022-12-07T03:48:37;13.20;;;8.80;;
23129;SDS011;11734;51.046;13.778;2022-12-07T03:51:13;12.17;;;8.60;;
23129;SDS011;11734;51.046;13.778;2022-12-07T03:53:46;11.37;;;7.80;;
23129;SDS011;11734;51.046;13.778;2022-12-07T03:56:15;14.43;;;9.07;;
23129;SDS011;11734;51.046;13.778;2022-12-07T03:58:43;14.20;;;9.07;;
23129;SDS011;11734;51.046;13.778;2022-12-07T04:01:10;11.90;;;8.77;;
23129;SDS011;11734;51.046;13.778;2022-12-07T04:03:38;13.97;;;8.87;;
23129;SDS011;11734;51.046;13.778;2022-12-07T04:06:05;14.53;;;9.70;;
23129;SDS011;11734;51.046;13.778;2022-12-07T04:08:32;12.30;;;8.70;;
23129;SDS011;11734;51.046;13.778;2022-12-07T04:11:00;11.37;;;8.80;;
23129;SDS011;11734;51.046;13.778;2022-12-07T04:13:27;12.43;;;8.47;;
23129;SDS011;11734;51.046;13.778;2022-12-07T04:15:54;12.90;;;8.57;;
23129;SDS011;11734;51.046;13.778;2022-12-07T04:18:22;14.27;;;8.90;;
23129;SDS011;11734;51.046;13.778;2022-12-07T04:20:49;13.03;;;8.60;;
23129;SDS011;11734;51.046;13.778;2022-12-07T04:23:16;11.90;;;8.63;;
23129;SDS011;11734;51.046;13.778;2022-12-07T04:25:43;12.20;;;8.40;;
23129;SDS011;11734;51.046;13.778;2022-12-07T04:28:10;13.93;;;9.57;;
23129;SDS011;11734;51.046;13.778;2022-12-07T04:30:37;13.83;;;9.00;;
23129;SDS011;11734;51.046;13.778;2022-12-07T04:33:05;13.47;;;8.70;;
23129;SDS011;11734;51.046;13.778;2022-12-07T04:35:32;12.07;;;7.83;;
23129;SDS011;11734;51.046;13.778;2022-12-07T04:37:59;12.73;;;8.13;;
23129;SDS011;11734;51.046;13.778;2022-12-07T04:40:26;13.63;;;8.77;;
23129;SDS011;11734;51.046;13.778;2022-12-07T04:42:54;13.13;;;8.43;;
23129;SDS011;11734;51.046;13.778;2022-12-07T04:45:21;11.23;;;7.80;;
23129;SDS011;11734;51.046;13.778;2022-12-07T04:47:48;12.37;;;8.47;;
23129;SDS011;11734;51.046;13.778;2022-12-07T04:50:15;12.13;;;8.53;;
23129;SDS011;11734;51.046;13.778;2022-12-07T04:52:42;16.13;;;11.03;;
23129;SDS011;11734;51.046;13.778;2022-12-07T04:55:09;10.53;;;7.93;;
23129;SDS011;11734;51.046;13.778;2022-12-07T04:57:37;14.73;;;10.57;;
23129;SDS011;11734;51.046;13.778;2022-12-07T05:00:04;9.77;;;6.97;;
23129;SDS011;11734;51.046;13.778;2022-12-07T05:02:32;10.93;;;7.63;;
23129;SDS011;11734;51.046;13.778;2022-12-07T05:05:00;10.60;;;6.90;;
23129;SDS011;11734;51.046;13.778;2022-12-07T05:07:27;9.43;;;7.17;;
23129;SDS011;11734;51.046;13.778;2022-12-07T05:09:55;12.33;;;8.23;;
23129;SDS011;11734;51.046;13.778;2022-12-07T05:12:22;11.90;;;8.43;;
23129;SDS011;11734;51.046;13.778;2022-12-07T05:14:50;12.97;;;8.17;;
23129;SDS011;11734;51.046;13.778;2022-12-07T05:17:17;10.23;;;7.43;;
23129;SDS011;11734;51.046;13.778;2022-12-07T05:19:44;11.37;;;7.90;;
23129;SDS011;11734;51.046;13.778;2022-12-07T05:22:11;10.73;;;7.70;;
23129;SDS011;11734;51.046;13.778;2022-12-07T05:24:39;11.90;;;7.63;;
23129;SDS011;11734;51.046;13.778;2022-12-07T05:27:06;11.83;;;7.37;;
23129;SDS011;11734;51.046;13.778;2022-12-07T05:29:34;10.87;;;7.77;;
23129;SDS011;11734;51.046;13.778;2022-12-07T05:32:01;14.20;;;8.17;;
23129;SDS011;11734;51.046;13.778;2022-12-07T05:34:28;67.53;;;44.27;;
23129;SDS011;11734;51.046;13.778;2022-12-07T05:36:55;42.03;;;28.43;;
23129;SDS011;11734;51.046;13.778;2022-12-07T05:39:23;11.40;;;7.47;;
23129;SDS011;11734;51.046;13.778;2022-12-07T05:41:50;9.93;;;7.63;;
23129;SDS011;11734;51.046;13.778;2022-12-07T05:44:36;11.27;;;6.83;;
23129;SDS011;11734;51.046;13.778;2022-12-07T05:47:03;11.33;;;7.07;;
23129;SDS011;11734;51.046;13.778;2022-12-07T05:49:30;9.40;;;7.27;;
23129;SDS011;11734;51.046;13.778;2022-12-07T05:51:57;10.87;;;7.57;;
23129;SDS011;11734;51.046;13.778;2022-12-07T05:54:25;10.30;;;6.57;;
23129;SDS011;11734;51.046;13.778;2022-12-07T05:56:52;9.00;;;6.40;;
23129;SDS011;11734;51.046;13.778;2022-12-07T05:59:19;8.73;;;6.20;;
23129;SDS011;11734;51.046;13.778;2022-12-07T06:04:17;9.50;;;7.03;;
23129;SDS011;11734;51.046;13.778;2022-12-07T06:06:45;9.63;;;6.30;;
23129;SDS011;11734;51.046;13.778;2022-12-07T06:09:12;7.57;;;5.37;;
23129;SDS011;11734;51.046;13.778;2022-12-07T06:11:40;8.73;;;5.53;;
23129;SDS011;11734;51.046;13.778;2022-12-07T06:14:25;7.87;;;5.80;;
23129;SDS011;11734;51.046;13.778;2022-12-07T06:16:53;7.13;;;5.60;;
23129;SDS011;11734;51.046;13.778;2022-12-07T06:19:22;6.40;;;4.70;;
23129;SDS011;11734;51.046;13.778;2022-12-07T06:21:49;7.63;;;5.50;;
23129;SDS011;11734;51.046;13.778;2022-12-07T06:24:17;5.50;;;4.43;;
23129;SDS011;11734;51.046;13.778;2022-12-07T06:26:44;6.67;;;4.63;;
23129;SDS011;11734;51.046;13.778;2022-12-07T06:29:31;6.27;;;4.53;;
23129;SDS011;11734;51.046;13.778;2022-12-07T06:31:58;6.83;;;4.90;;
23129;SDS011;11734;51.046;13.778;2022-12-07T06:34:26;6.27;;;4.40;;
23129;SDS011;11734;51.046;13.778;2022-12-07T06:36:53;6.40;;;4.87;;
23129;SDS011;11734;51.046;13.778;2022-12-07T06:39:22;7.33;;;4.77;;
23129;SDS011;11734;51.046;13.778;2022-12-07T06:41:50;6.27;;;4.73;;
23129;SDS011;11734;51.046;13.778;2022-12-07T06:44:20;4.90;;;4.13;;
23129;SDS011;11734;51.046;13.778;2022-12-07T06:46:48;5.67;;;4.13;;
23129;SDS011;11734;51.046;13.778;2022-12-07T06:49:16;4.70;;;3.97;;
23129;SDS011;11734;51.046;13.778;2022-12-07T06:51:43;5.23;;;3.90;;
23129;SDS011;11734;51.046;13.778;2022-12-07T06:54:11;5.80;;;4.27;;
23129;SDS011;11734;51.046;13.778;2022-12-07T06:56:39;7.10;;;4.40;;
23129;SDS011;11734;51.046;13.778;2022-12-07T06:59:06;5.67;;;4.10;;
23129;SDS011;11734;51.046;13.778;2022-12-07T07:01:34;5.23;;;4.07;;
23129;SDS011;11734;51.046;13.778;2022-12-07T07:04:02;5.63;;;4.37;;
23129;SDS011;11734;51.046;13.778;2022-12-07T07:06:29;5.70;;;4.23;;
23129;SDS011;11734;51.046;13.778;2022-12-07T07:08:56;6.20;;;4.43;;
23129;SDS011;11734;51.046;13.778;2022-12-07T07:11:23;5.10;;;4.10;;
23129;SDS011;11734;51.046;13.778;2022-12-07T07:13:50;5.97;;;4.20;;
23129;SDS011;11734;51.046;13.778;2022-12-07T07:16:18;4.03;;;3.43;;
23129;SDS011;11734;51.046;13.778;2022-12-07T07:18:45;5.77;;;4.77;;
23129;SDS011;11734;51.046;13.778;2022-12-07T07:21:12;4.97;;;4.13;;
23129;SDS011;11734;51.046;13.778;2022-12-07T07:23:39;5.30;;;4.43;;
23129;SDS011;11734;51.046;13.778;2022-12-07T07:26:06;5.57;;;4.43;;
23129;SDS011;11734;51.046;13.778;2022-12-07T07:28:34;5.87;;;4.70;;
23129;SDS011;11734;51.046;13.778;2022-12-07T07:31:01;5.43;;;4.20;;
23129;SDS011;11734;51.046;13.778;2022-12-07T07:33:28;5.80;;;4.60;;
23129;SDS011;11734;51.046;13.778;2022-12-07T07:35:55;6.40;;;4.57;;
23129;SDS011;11734;51.046;13.778;2022-12-07T07:38:23;6.23;;;4.50;;
23129;SDS011;11734;51.046;13.778;2022-12-07T07:40:50;5.70;;;4.53;;
23129;SDS011;11734;51.046;13.778;2022-12-07T07:43:17;5.83;;;4.60;;
23129;SDS011;11734;51.046;13.778;2022-12-07T07:45:45;5.10;;;4.60;;
23129;SDS011;11734;51.046;13.778;2022-12-07T07:48:12;5.37;;;4.20;;
23129;SDS011;11734;51.046;13.778;2022-12-07T07:50:40;5.63;;;4.43;;
23129;SDS011;11734;51.046;13.778;2022-12-07T07:53:07;5.83;;;4.73;;
23129;SDS011;11734;51.046;13.778;2022-12-07T07:55:34;7.20;;;4.67;;
23129;SDS011;11734;51.046;13.778;2022-12-07T07:58:01;6.13;;;4.93;;
23129;SDS011;11734;51.046;13.778;2022-12-07T08:00:29;5.90;;;5.13;;
23129;SDS011;11734;51.046;13.778;2022-12-07T08:02:56;6.83;;;5.70;;
23129;SDS011;11734;51.046;13.778;2022-12-07T08:05:23;6.70;;;5.13;;
23129;SDS011;11734;51.046;13.778;2022-12-07T08:07:52;8.00;;;5.57;;
23129;SDS011;11734;51.046;13.778;2022-12-07T08:10:19;7.70;;;6.60;;
23129;SDS011;11734;51.046;13.778;2022-12-07T08:12:46;7.63;;;6.17;;
23129;SDS011;11734;51.046;13.778;2022-12-07T08:15:32;7.30;;;6.07;;
23129;SDS011;11734;51.046;13.778;2022-12-07T08:17:59;7.50;;;6.43;;
23129;SDS011;11734;51.046;13.778;2022-12-07T08:20:26;8.33;;;6.40;;
23129;SDS011;11734;51.046;13.778;2022-12-07T08:22:54;8.20;;;6.60;;
23129;SDS011;11734;51.046;13.778;2022-12-07T08:25:21;7.73;;;6.83;;
23129;SDS011;11734;51.046;13.778;2022-12-07T08:27:49;9.47;;;6.53;;
23129;SDS011;11734;51.046;13.778;2022-12-07T08:30:16;9.63;;;6.77;;
23129;SDS011;11734;51.046;13.778;2022-12-07T08:32:44;7.37;;;6.63;;
23129;SDS011;11734;51.046;13.778;2022-12-07T08:35:12;9.93;;;6.63;;
23129;SDS011;11734;51.046;13.778;2022-12-07T08:37:39;8.23;;;6.30;;
23129;SDS011;11734;51.046;13.778;2022-12-07T08:40:07;7.07;;;5.97;;
23129;SDS011;11734;51.046;13.778;2022-12-07T08:42:35;11.00;;;7.13;;
23129;SDS011;11734;51.046;13.778;2022-12-07T08:45:07;7.67;;;6.27;;
23129;SDS011;11734;51.046;13.778;2022-12-07T08:47:36;9.03;;;6.47;;
23129;SDS011;11734;51.046;13.778;2022-12-07T08:50:04;9.50;;;6.73;;
23129;SDS011;11734;51.046;13.778;2022-12-07T08:52:33;10.90;;;6.70;;
23129;SDS011;11734;51.046;13.778;2022-12-07T08:55:01;8.57;;;6.70;;
23129;SDS011;11734;51.046;13.778;2022-12-07T08:57:29;8.57;;;6.00;;
23129;SDS011;11734;51.046;13.778;2022-12-07T08:59:57;8.90;;;6.60;;
23129;SDS011;11734;51.046;13.778;2022-12-07T09:02:25;8.13;;;6.50;;
23129;SDS011;11734;51.046;13.778;2022-12-07T09:04:52;9.27;;;5.57;;
23129;SDS011;11734;51.046;13.778;2022-12-07T09:07:19;9.70;;;6.50;;
23129;SDS011;11734;51.046;13.778;2022-12-07T09:09:47;9.37;;;6.30;;
23129;SDS011;11734;51.046;13.778;2022-12-07T09:12:14;8.23;;;5.93;;
23129;SDS011;11734;51.046;13.778;2022-12-07T09:14:41;7.63;;;5.97;;
23129;SDS011;11734;51.046;13.778;2022-12-07T09:17:09;7.00;;;5.70;;
23129;SDS011;11734;51.046;13.778;2022-12-07T09:19:37;8.37;;;6.60;;
23129;SDS011;11734;51.046;13.778;2022-12-07T09:22:04;8.33;;;6.47;;
23129;SDS011;11734;51.046;13.778;2022-12-07T09:24:32;6.23;;;5.23;;
23129;SDS011;11734;51.046;13.778;2022-12-07T09:26:59;7.30;;;5.07;;
23129;SDS011;11734;51.046;13.778;2022-12-07T09:29:27;7.90;;;5.60;;
23129;SDS011;11734;51.046;13.778;2022-12-07T09:31:54;7.40;;;5.97;;
23129;SDS011;11734;51.046;13.778;2022-12-07T09:34:21;7.43;;;5.60;;
23129;SDS011;11734;51.046;13.778;2022-12-07T09:36:48;6.97;;;5.33;;
23129;SDS011;11734;51.046;13.778;2022-12-07T09:39:15;6.87;;;5.40;;
23129;SDS011;11734;51.046;13.778;2022-12-07T09:41:43;7.57;;;5.43;;
23129;SDS011;11734;51.046;13.778;2022-12-07T09:44:13;7.00;;;5.17;;
23129;SDS011;11734;51.046;13.778;2022-12-07T09:46:41;7.07;;;4.93;;
23129;SDS011;11734;51.046;13.778;2022-12-07T09:49:12;7.67;;;4.70;;
23129;SDS011;11734;51.046;13.778;2022-12-07T09:51:41;6.77;;;5.17;;
23129;SDS011;11734;51.046;13.778;2022-12-07T09:54:27;5.40;;;4.50;;
23129;SDS011;11734;51.046;13.778;2022-12-07T09:56:55;6.90;;;4.63;;
23129;SDS011;11734;51.046;13.778;2022-12-07T09:59:22;7.77;;;5.27;;
23129;SDS011;11734;51.046;13.778;2022-12-07T10:01:50;9.17;;;4.40;;
23129;SDS011;11734;51.046;13.778;2022-12-07T10:04:26;7.47;;;4.80;;
23129;SDS011;11734;51.046;13.778;2022-12-07T10:06:56;5.00;;;4.07;;
23129;SDS011;11734;51.046;13.778;2022-12-07T10:09:23;6.40;;;4.30;;
23129;SDS011;11734;51.046;13.778;2022-12-07T10:14:31;6.13;;;4.83;;
23129;SDS011;11734;51.046;13.778;2022-12-07T10:17:29;6.63;;;4.77;;
23129;SDS011;11734;51.046;13.778;2022-12-07T10:23:01;7.87;;;5.10;;
23129;SDS011;11734;51.046;13.778;2022-12-07T10:25:31;5.90;;;4.47;;
23129;SDS011;11734;51.046;13.778;2022-12-07T10:30:26;6.80;;;4.40;;
23129;SDS011;11734;51.046;13.778;2022-12-07T10:32:53;8.23;;;5.00;;
23129;SDS011;11734;51.046;13.778;2022-12-07T10:35:24;5.50;;;4.40;;
23129;SDS011;11734;51.046;13.778;2022-12-07T10:37:53;6.90;;;4.80;;
23129;SDS011;11734;51.046;13.778;2022-12-07T10:43:15;7.47;;;4.20;;
23129;SDS011;11734;51.046;13.778;2022-12-07T10:48:34;5.23;;;4.43;;
23129;SDS011;11734;51.046;13.778;2022-12-07T10:56:17;6.60;;;5.03;;
23129;SDS011;11734;51.046;13.778;2022-12-07T11:07:06;9.73;;;5.07;;
23129;SDS011;11734;51.046;13.778;2022-12-07T11:23:00;7.17;;;4.70;;
23129;SDS011;11734;51.046;13.778;2022-12-07T11:30:34;5.90;;;4.80;;
23129;SDS011;11734;51.046;13.778;2022-12-07T11:33:10;7.27;;;5.00;;
23129;SDS011;11734;51.046;13.778;2022-12-07T11:41:00;6.87;;;4.60;;
23129;SDS011;11734;51.046;13.778;2022-12-07T11:44:01;8.13;;;4.77;;
23129;SDS011;11734;51.046;13.778;2022-12-07T11:46:29;6.70;;;4.43;;
23129;SDS011;11734;51.046;13.778;2022-12-07T11:49:08;7.17;;;4.40;;
23129;SDS011;11734;51.046;13.778;2022-12-07T11:51:38;6.93;;;4.60;;
23129;SDS011;11734;51.046;13.778;2022-12-07T11:54:14;7.07;;;5.10;;
23129;SDS011;11734;51.046;13.778;2022-12-07T11:56:44;7.13;;;5.07;;
23129;SDS011;11734;51.046;13.778;2022-12-07T11:59:16;7.33;;;5.40;;
23129;SDS011;11734;51.046;13.778;2022-12-07T12:01:50;6.83;;;5.03;;
23129;SDS011;11734;51.046;13.778;2022-12-07T12:06:56;9.37;;;5.50;;
23129;SDS011;11734;51.046;13.778;2022-12-07T12:09:27;7.70;;;5.93;;
23129;SDS011;11734;51.046;13.778;2022-12-07T12:12:09;7.87;;;5.53;;
23129;SDS011;11734;51.046;13.778;2022-12-07T12:22:46;7.50;;;5.80;;
23129;SDS011;11734;51.046;13.778;2022-12-07T12:25:39;9.03;;;5.57;;
23129;SDS011;11734;51.046;13.778;2022-12-07T12:31:16;6.37;;;5.10;;
23129;SDS011;11734;51.046;13.778;2022-12-07T12:33:45;7.23;;;5.73;;
23129;SDS011;11734;51.046;13.778;2022-12-07T12:51:47;4.27;;;3.43;;
23129;SDS011;11734;51.046;13.778;2022-12-07T12:57:28;3.87;;;2.73;;
23129;SDS011;11734;51.046;13.778;2022-12-07T13:02:21;3.63;;;2.20;;
23129;SDS011;11734;51.046;13.778;2022-12-07T13:10:02;3.10;;;2.20;;
23129;SDS011;11734;51.046;13.778;2022-12-07T13:12:30;3.73;;;1.70;;
23129;SDS011;11734;51.046;13.778;2022-12-07T13:14:58;1.60;;;1.50;;
23129;SDS011;11734;51.046;13.778;2022-12-07T13:20:00;1.63;;;1.50;;
23129;SDS011;11734;51.046;13.778;2022-12-07T13:27:41;2.90;;;2.23;;
23129;SDS011;11734;51.046;13.778;2022-12-07T13:30:18;2.77;;;2.20;;
23129;SDS011;11734;51.046;13.778;2022-12-07T13:32:56;2.87;;;2.47;;
23129;SDS011;11734;51.046;13.778;2022-12-07T13:35:28;3.57;;;2.40;;
23129;SDS011;11734;51.046;13.778;2022-12-07T13:37:55;3.10;;;2.80;;
23129;SDS011;11734;51.046;13.778;2022-12-07T13:40:23;3.23;;;2.70;;
23129;SDS011;11734;51.046;13.778;2022-12-07T13:43:00;3.90;;;3.20;;
23129;SDS011;11734;51.046;13.778;2022-12-07T13:48:27;3.40;;;3.10;;
23129;SDS011;11734;51.046;13.778;2022-12-07T13:50:55;6.23;;;3.90;;
23129;SDS011;11734;51.046;13.778;2022-12-07T13:53:23;4.97;;;3.50;;
23129;SDS011;11734;51.046;13.778;2022-12-07T13:55:57;4.83;;;3.47;;
23129;SDS011;11734;51.046;13.778;2022-12-07T13:58:25;5.17;;;4.23;;
23129;SDS011;11734;51.046;13.778;2022-12-07T14:00:54;6.07;;;4.27;;
23129;SDS011;11734;51.046;13.778;2022-12-07T14:03:29;5.00;;;4.27;;
23129;SDS011;11734;51.046;13.778;2022-12-07T14:06:04;5.07;;;4.37;;
23129;SDS011;11734;51.046;13.778;2022-12-07T14:08:32;6.33;;;4.53;;
23129;SDS011;11734;51.046;13.778;2022-12-07T14:11:00;6.23;;;4.60;;
23129;SDS011;11734;51.046;13.778;2022-12-07T14:13:29;8.43;;;5.23;;
23129;SDS011;11734;51.046;13.778;2022-12-07T14:15:57;5.20;;;4.70;;
23129;SDS011;11734;51.046;13.778;2022-12-07T14:18:35;5.10;;;4.60;;
23129;SDS011;11734;51.046;13.778;2022-12-07T14:23:37;6.80;;;5.10;;
23129;SDS011;11734;51.046;13.778;2022-12-07T14:26:11;8.53;;;5.83;;
23129;SDS011;11734;51.046;13.778;2022-12-07T14:28:39;5.87;;;5.03;;
23129;SDS011;11734;51.046;13.778;2022-12-07T14:31:11;6.43;;;4.80;;
23129;SDS011;11734;51.046;13.778;2022-12-07T14:33:49;7.80;;;5.13;;
23129;SDS011;11734;51.046;13.778;2022-12-07T14:36:16;6.50;;;4.90;;
23129;SDS011;11734;51.046;13.778;2022-12-07T14:38:43;6.17;;;5.03;;
23129;SDS011;11734;51.046;13.778;2022-12-07T14:41:13;7.10;;;5.27;;
23129;SDS011;11734;51.046;13.778;2022-12-07T14:44:00;8.63;;;5.67;;
23129;SDS011;11734;51.046;13.778;2022-12-07T14:46:48;8.60;;;4.97;;
23129;SDS011;11734;51.046;13.778;2022-12-07T14:49:16;8.00;;;5.60;;
23129;SDS011;11734;51.046;13.778;2022-12-07T14:51:59;6.60;;;5.10;;
23129;SDS011;11734;51.046;13.778;2022-12-07T14:54:46;7.33;;;4.63;;
23129;SDS011;11734;51.046;13.778;2022-12-07T14:57:14;7.40;;;5.10;;
23129;SDS011;11734;51.046;13.778;2022-12-07T14:59:41;5.73;;;4.83;;
23129;SDS011;11734;51.046;13.778;2022-12-07T15:02:11;7.57;;;4.70;;
23129;SDS011;11734;51.046;13.778;2022-12-07T15:04:39;7.30;;;4.80;;
23129;SDS011;11734;51.046;13.778;2022-12-07T15:07:09;5.47;;;4.40;;
23129;SDS011;11734;51.046;13.778;2022-12-07T15:09:37;8.53;;;4.30;;
23129;SDS011;11734;51.046;13.778;2022-12-07T15:12:05;5.60;;;4.37;;
23129;SDS011;11734;51.046;13.778;2022-12-07T15:14:32;5.13;;;3.83;;
23129;SDS011;11734;51.046;13.778;2022-12-07T15:16:59;5.50;;;3.57;;
23129;SDS011;11734;51.046;13.778;2022-12-07T15:19:40;4.70;;;3.67;;
23129;SDS011;11734;51.046;13.778;2022-12-07T15:22:07;6.60;;;3.57;;
23129;SDS011;11734;51.046;13.778;2022-12-07T15:24:37;3.97;;;3.00;;
23129;SDS011;11734;51.046;13.778;2022-12-07T15:27:04;3.57;;;2.80;;
23129;SDS011;11734;51.046;13.778;2022-12-07T15:29:31;3.83;;;3.00;;
23129;SDS011;11734;51.046;13.778;2022-12-07T15:31:59;3.97;;;2.70;;
23129;SDS011;11734;51.046;13.778;2022-12-07T15:34:26;4.50;;;2.60;;
23129;SDS011;11734;51.046;13.778;2022-12-07T15:37:04;3.80;;;2.67;;
23129;SDS011;11734;51.046;13.778;2022-12-07T15:39:32;3.20;;;2.70;;
23129;SDS011;11734;51.046;13.778;2022-12-07T15:42:00;3.77;;;2.70;;
23129;SDS011;11734;51.046;13.778;2022-12-07T15:44:27;2.60;;;2.30;;
23129;SDS011;11734;51.046;13.778;2022-12-07T15:47:13;3.63;;;2.47;;
23129;SDS011;11734;51.046;13.778;2022-12-07T15:49:40;4.40;;;2.77;;
23129;SDS011;11734;51.046;13.778;2022-12-07T15:52:07;4.07;;;2.70;;
23129;SDS011;11734;51.046;13.778;2022-12-07T15:54:35;3.73;;;2.40;;
23129;SDS011;11734;51.046;13.778;2022-12-07T15:57:02;3.20;;;2.57;;
23129;SDS011;11734;51.046;13.778;2022-12-07T15:59:29;3.57;;;3.10;;
23129;SDS011;11734;51.046;13.778;2022-12-07T16:01:56;4.07;;;3.30;;
23129;SDS011;11734;51.046;13.778;2022-12-07T16:04:24;5.27;;;3.07;;
23129;SDS011;11734;51.046;13.778;2022-12-07T16:06:53;5.37;;;3.10;;
23129;SDS011;11734;51.046;13.778;2022-12-07T16:09:20;4.80;;;2.80;;
23129;SDS011;11734;51.046;13.778;2022-12-07T16:11:48;4.93;;;3.43;;
23129;SDS011;11734;51.046;13.778;2022-12-07T16:14:16;5.60;;;3.30;;
23129;SDS011;11734;51.046;13.778;2022-12-07T16:16:44;3.70;;;2.90;;
23129;SDS011;11734;51.046;13.778;2022-12-07T16:19:11;5.70;;;3.17;;
23129;SDS011;11734;51.046;13.778;2022-12-07T16:21:38;3.73;;;3.17;;
23129;SDS011;11734;51.046;13.778;2022-12-07T16:24:06;5.13;;;2.90;;
23129;SDS011;11734;51.046;13.778;2022-12-07T16:26:33;3.80;;;2.83;;
23129;SDS011;11734;51.046;13.778;2022-12-07T16:29:01;5.30;;;3.10;;
23129;SDS011;11734;51.046;13.778;2022-12-07T16:31:28;4.27;;;3.33;;
23129;SDS011;11734;51.046;13.778;2022-12-07T16:33:56;4.97;;;3.37;;
23129;SDS011;11734;51.046;13.778;2022-12-07T16:36:24;4.37;;;3.17;;
23129;SDS011;11734;51.046;13.778;2022-12-07T16:39:13;3.83;;;3.00;;
23129;SDS011;11734;51.046;13.778;2022-12-07T16:41:40;5.67;;;3.37;;
23129;SDS011;11734;51.046;13.778;2022-12-07T16:44:10;4.63;;;3.07;;
23129;SDS011;11734;51.046;13.778;2022-12-07T16:46:39;5.00;;;3.27;;
23129;SDS011;11734;51.046;13.778;2022-12-07T16:49:06;3.87;;;3.13;;
23129;SDS011;11734;51.046;13.778;2022-12-07T16:51:33;4.57;;;3.33;;
23129;SDS011;11734;51.046;13.778;2022-12-07T16:54:03;5.00;;;3.40;;
23129;SDS011;11734;51.046;13.778;2022-12-07T16:56:30;4.87;;;3.70;;
23129;SDS011;11734;51.046;13.778;2022-12-07T16:58:58;4.90;;;3.40;;
23129;SDS011;11734;51.046;13.778;2022-12-07T17:01:25;6.17;;;2.80;;